DKH5911 ZYCC-ZSSS
Flight info
| Callsign | DKH5911 |
|---|---|
| Flight time | 2h 29m |
| Altitude | 34100 |
| Route | LEMOT4D LEMOT A588 UDETI W106 MAKNO W5 TAO W174 XDX DCT MABEB DCT GURIL DCT RUXEL W178 OSIKI/K0846S1070 W166 ZJ W167 SASAN SAS71A |
| Aircraft | A321/M-SDE3FGHIRWY/LB1 |
Departure
| Time | 2026-05-07 12:12 |
|---|---|
| Airport | Changchun Longjia International Airport (ZYCC) |
Arrival
| Time | 2026-05-07 14:41 |
|---|---|
| Airport | Shanghai Hongqiao International Airport (ZSSS) |
| Time | Latitude | Longitude | Altitude | Speed | Heading |
|---|---|---|---|---|---|
| 2026-05-07 11:47 | 43.99306 | 125.68843 | 672 ft | 0 kts | 142° |
| 2026-05-07 11:59 | 43.99313 | 125.68836 | 670 ft | 2 kts | 139° |
| 2026-05-07 11:59 | 43.99326 | 125.68821 | 673 ft | 2 kts | 140° |
| 2026-05-07 11:59 | 43.99339 | 125.68807 | 671 ft | 2 kts | 143° |
| 2026-05-07 11:59 | 43.99352 | 125.68793 | 670 ft | 2 kts | 144° |
| 2026-05-07 12:00 | 43.99366 | 125.68783 | 671 ft | 2 kts | 185° |
| 2026-05-07 12:00 | 43.99382 | 125.68785 | 672 ft | 2 kts | 192° |
| 2026-05-07 12:00 | 43.99396 | 125.68796 | 671 ft | 2 kts | 232° |
| 2026-05-07 12:00 | 43.99404 | 125.68810 | 672 ft | 1 kts | 229° |
| 2026-05-07 12:01 | 43.99405 | 125.68811 | 672 ft | 0 kts | 229° |
| 2026-05-07 12:02 | 43.99404 | 125.68810 | 672 ft | 1 kts | 229° |
| 2026-05-07 12:03 | 43.99389 | 125.68785 | 672 ft | 3 kts | 229° |
| 2026-05-07 12:03 | 43.99384 | 125.68778 | 673 ft | 0 kts | 229° |
| 2026-05-07 12:03 | 43.99382 | 125.68774 | 673 ft | 3 kts | 229° |
| 2026-05-07 12:03 | 43.99365 | 125.68733 | 674 ft | 6 kts | 255° |
| 2026-05-07 12:04 | 43.99369 | 125.68704 | 674 ft | 1 kts | 295° |
| 2026-05-07 12:04 | 43.99371 | 125.68694 | 674 ft | 3 kts | 276° |
| 2026-05-07 12:04 | 43.99332 | 125.68662 | 675 ft | 7 kts | 199° |
| 2026-05-07 12:04 | 43.99307 | 125.68640 | 675 ft | 2 kts | 223° |
| 2026-05-07 12:05 | 43.99305 | 125.68635 | 676 ft | 2 kts | 231° |
| 2026-05-07 12:05 | 43.99307 | 125.68588 | 676 ft | 4 kts | 310° |
| 2026-05-07 12:05 | 43.99320 | 125.68569 | 675 ft | 1 kts | 315° |
| 2026-05-07 12:05 | 43.99321 | 125.68568 | 674 ft | 0 kts | 315° |
| 2026-05-07 12:06 | 43.99338 | 125.68544 | 676 ft | 8 kts | 315° |
| 2026-05-07 12:06 | 43.99369 | 125.68494 | 676 ft | 4 kts | 291° |
| 2026-05-07 12:06 | 43.99366 | 125.68468 | 677 ft | 3 kts | 257° |
| 2026-05-07 12:06 | 43.99359 | 125.68442 | 674 ft | 2 kts | 246° |
| 2026-05-07 12:07 | 43.99348 | 125.68420 | 676 ft | 4 kts | 234° |
| 2026-05-07 12:07 | 43.99325 | 125.68379 | 677 ft | 7 kts | 231° |
| 2026-05-07 12:07 | 43.99288 | 125.68321 | 679 ft | 9 kts | 228° |
| 2026-05-07 12:07 | 43.99240 | 125.68241 | 680 ft | 12 kts | 230° |
| 2026-05-07 12:08 | 43.99180 | 125.68143 | 683 ft | 15 kts | 229° |
| 2026-05-07 12:08 | 43.99108 | 125.68028 | 683 ft | 17 kts | 229° |
| 2026-05-07 12:08 | 43.99025 | 125.67895 | 685 ft | 19 kts | 229° |
| 2026-05-07 12:08 | 43.98934 | 125.67749 | 688 ft | 21 kts | 229° |
| 2026-05-07 12:09 | 43.98837 | 125.67591 | 687 ft | 22 kts | 229° |
| 2026-05-07 12:09 | 43.98733 | 125.67426 | 693 ft | 23 kts | 229° |
| 2026-05-07 12:09 | 43.98629 | 125.67259 | 694 ft | 18 kts | 230° |
| 2026-05-07 12:09 | 43.98594 | 125.67166 | 694 ft | 7 kts | 285° |
| 2026-05-07 12:10 | 43.98611 | 125.67124 | 691 ft | 3 kts | 309° |
| 2026-05-07 12:10 | 43.98636 | 125.67093 | 695 ft | 8 kts | 320° |
| 2026-05-07 12:10 | 43.98698 | 125.67039 | 698 ft | 13 kts | 354° |
| 2026-05-07 12:10 | 43.98749 | 125.67093 | 700 ft | 0 kts | 49° |
| 2026-05-07 12:11 | 43.98890 | 125.67319 | 697 ft | 74 kts | 49° |
| 2026-05-07 12:11 | 43.99403 | 125.68142 | 681 ft | 148 kts | 49° |
| 2026-05-07 12:11 | 44.00180 | 125.69389 | 922 ft | 188 kts | 50° |
| 2026-05-07 12:12 | 44.01018 | 125.70764 | 1918 ft | 184 kts | 46° |
| 2026-05-07 12:12 | 44.01840 | 125.72117 | 2884 ft | 175 kts | 46° |
| 2026-05-07 12:12 | 44.02612 | 125.73402 | 3410 ft | 177 kts | 46° |
| 2026-05-07 12:12 | 44.03419 | 125.74695 | 3936 ft | 179 kts | 45° |
| 2026-05-07 12:13 | 44.04285 | 125.76061 | 4155 ft | 199 kts | 46° |
| 2026-05-07 12:13 | 44.05249 | 125.77587 | 4322 ft | 222 kts | 46° |
| 2026-05-07 12:13 | 44.06326 | 125.79302 | 4482 ft | 248 kts | 46° |
| 2026-05-07 12:13 | 44.07483 | 125.81160 | 5033 ft | 259 kts | 47° |
| 2026-05-07 12:14 | 44.08672 | 125.83080 | 5755 ft | 264 kts | 47° |
| 2026-05-07 12:14 | 44.09876 | 125.85030 | 6509 ft | 267 kts | 47° |
| 2026-05-07 12:14 | 44.11094 | 125.87006 | 7255 ft | 270 kts | 47° |
| 2026-05-07 12:14 | 44.12324 | 125.89000 | 8006 ft | 273 kts | 47° |
| 2026-05-07 12:15 | 44.13565 | 125.91015 | 8763 ft | 276 kts | 47° |
| 2026-05-07 12:15 | 44.14821 | 125.93054 | 9497 ft | 280 kts | 48° |
| 2026-05-07 12:15 | 44.15845 | 125.95333 | 9744 ft | 285 kts | 70° |
| 2026-05-07 12:15 | 44.16077 | 125.98063 | 9794 ft | 288 kts | 96° |
| 2026-05-07 12:16 | 44.15439 | 126.00700 | 9815 ft | 293 kts | 122° |
| 2026-05-07 12:16 | 44.14018 | 126.02734 | 10433 ft | 297 kts | 147° |
| 2026-05-07 12:16 | 44.12104 | 126.03806 | 11057 ft | 302 kts | 172° |
| 2026-05-07 12:16 | 44.10008 | 126.03586 | 11561 ft | 307 kts | 201° |
| 2026-05-07 12:17 | 44.08066 | 126.02328 | 12234 ft | 309 kts | 208° |
| 2026-05-07 12:17 | 44.06143 | 126.00965 | 12947 ft | 312 kts | 209° |
| 2026-05-07 12:17 | 44.04204 | 125.99588 | 13672 ft | 314 kts | 209° |
| 2026-05-07 12:17 | 44.02250 | 125.98205 | 14313 ft | 316 kts | 208° |
| 2026-05-07 12:18 | 44.00283 | 125.96819 | 14993 ft | 317 kts | 208° |
| 2026-05-07 12:18 | 43.98312 | 125.95436 | 15679 ft | 318 kts | 207° |
| 2026-05-07 12:18 | 43.96337 | 125.94054 | 16359 ft | 319 kts | 207° |
| 2026-05-07 12:18 | 43.94346 | 125.92665 | 17043 ft | 320 kts | 207° |
| 2026-05-07 12:19 | 43.92353 | 125.91274 | 17688 ft | 322 kts | 207° |
| 2026-05-07 12:19 | 43.90424 | 125.89663 | 18187 ft | 329 kts | 216° |
| 2026-05-07 12:19 | 43.88528 | 125.87736 | 18321 ft | 346 kts | 216° |
| 2026-05-07 12:19 | 43.86556 | 125.85703 | 18457 ft | 361 kts | 216° |
| 2026-05-07 12:20 | 43.84498 | 125.83576 | 18586 ft | 376 kts | 216° |
| 2026-05-07 12:20 | 43.82356 | 125.81370 | 18713 ft | 391 kts | 216° |
| 2026-05-07 12:20 | 43.80053 | 125.79295 | 18910 ft | 401 kts | 208° |
| 2026-05-07 12:20 | 43.77595 | 125.77477 | 19300 ft | 406 kts | 209° |
| 2026-05-07 12:21 | 43.75099 | 125.75624 | 19733 ft | 409 kts | 209° |
| 2026-05-07 12:21 | 43.72579 | 125.73753 | 20208 ft | 412 kts | 209° |
| 2026-05-07 12:21 | 43.70046 | 125.71876 | 20694 ft | 414 kts | 209° |
| 2026-05-07 12:21 | 43.67504 | 125.69996 | 21172 ft | 416 kts | 209° |
| 2026-05-07 12:22 | 43.64940 | 125.68105 | 21639 ft | 418 kts | 209° |
| 2026-05-07 12:22 | 43.62369 | 125.66206 | 22098 ft | 420 kts | 209° |
| 2026-05-07 12:22 | 43.59784 | 125.64295 | 22549 ft | 423 kts | 211° |
| 2026-05-07 12:22 | 43.57180 | 125.62369 | 22889 ft | 427 kts | 210° |
| 2026-05-07 12:23 | 43.54544 | 125.60429 | 23285 ft | 430 kts | 210° |
| 2026-05-07 12:23 | 43.51885 | 125.58510 | 23676 ft | 433 kts | 210° |
| 2026-05-07 12:23 | 43.49196 | 125.56606 | 24006 ft | 435 kts | 209° |
| 2026-05-07 12:23 | 43.46494 | 125.54710 | 24312 ft | 438 kts | 209° |
| 2026-05-07 12:24 | 43.43777 | 125.52805 | 24722 ft | 437 kts | 209° |
| 2026-05-07 12:24 | 43.41065 | 125.50897 | 25110 ft | 438 kts | 210° |
| 2026-05-07 12:24 | 43.38385 | 125.49006 | 25449 ft | 440 kts | 210° |
| 2026-05-07 12:24 | 43.35621 | 125.47052 | 25780 ft | 443 kts | 210° |
| 2026-05-07 12:25 | 43.32910 | 125.45138 | 26090 ft | 445 kts | 210° |
| 2026-05-07 12:25 | 43.30153 | 125.43192 | 26433 ft | 446 kts | 210° |
| 2026-05-07 12:25 | 43.27391 | 125.41244 | 26861 ft | 445 kts | 210° |
| 2026-05-07 12:25 | 43.24648 | 125.39309 | 27273 ft | 444 kts | 210° |
| 2026-05-07 12:26 | 43.21895 | 125.37375 | 27633 ft | 445 kts | 210° |
| 2026-05-07 12:26 | 43.19133 | 125.35438 | 28015 ft | 445 kts | 210° |
| 2026-05-07 12:26 | 43.16379 | 125.33508 | 28422 ft | 445 kts | 210° |
| 2026-05-07 12:26 | 43.13613 | 125.31570 | 28824 ft | 445 kts | 210° |
| 2026-05-07 12:27 | 43.10864 | 125.29644 | 29241 ft | 444 kts | 210° |
| 2026-05-07 12:27 | 43.08115 | 125.27721 | 29649 ft | 443 kts | 210° |
| 2026-05-07 12:27 | 43.05370 | 125.25802 | 30010 ft | 444 kts | 210° |
| 2026-05-07 12:27 | 43.02620 | 125.23881 | 30317 ft | 444 kts | 211° |
| 2026-05-07 12:28 | 42.99878 | 125.21963 | 30628 ft | 443 kts | 211° |
| 2026-05-07 12:28 | 42.97123 | 125.20074 | 30945 ft | 444 kts | 207° |
| 2026-05-07 12:28 | 42.94199 | 125.18660 | 31241 ft | 449 kts | 198° |
| 2026-05-07 12:28 | 42.91108 | 125.17928 | 31538 ft | 454 kts | 189° |
| 2026-05-07 12:29 | 42.87938 | 125.17893 | 31820 ft | 459 kts | 181° |
| 2026-05-07 12:29 | 42.84755 | 125.17950 | 32099 ft | 453 kts | 190° |
| 2026-05-07 12:29 | 42.81690 | 125.17184 | 32385 ft | 445 kts | 201° |
| 2026-05-07 12:29 | 42.78807 | 125.15733 | 32672 ft | 440 kts | 209° |
| 2026-05-07 12:30 | 42.76098 | 125.13832 | 32951 ft | 437 kts | 212° |
| 2026-05-07 12:30 | 42.73408 | 125.11912 | 33236 ft | 437 kts | 211° |
| 2026-05-07 12:30 | 42.70699 | 125.10020 | 33519 ft | 437 kts | 211° |
| 2026-05-07 12:30 | 42.67988 | 125.08147 | 33772 ft | 437 kts | 211° |
| 2026-05-07 12:31 | 42.65278 | 125.06278 | 34006 ft | 438 kts | 211° |
| 2026-05-07 12:31 | 42.59848 | 125.02518 | 34082 ft | 438 kts | 212° |
| 2026-05-07 12:32 | 42.54417 | 124.98736 | 34084 ft | 438 kts | 212° |
| 2026-05-07 12:32 | 42.48991 | 124.94953 | 34083 ft | 439 kts | 212° |
| 2026-05-07 12:33 | 42.40848 | 124.89288 | 34086 ft | 439 kts | 212° |
| 2026-05-07 12:33 | 42.35409 | 124.85521 | 34064 ft | 439 kts | 212° |
| 2026-05-07 12:34 | 42.29962 | 124.81756 | 34085 ft | 439 kts | 212° |
| 2026-05-07 12:34 | 42.24516 | 124.77999 | 34099 ft | 439 kts | 212° |
| 2026-05-07 12:35 | 42.19112 | 124.74272 | 34109 ft | 439 kts | 212° |
| 2026-05-07 12:35 | 42.13668 | 124.70528 | 34093 ft | 439 kts | 212° |
| 2026-05-07 12:36 | 42.08220 | 124.66793 | 34101 ft | 439 kts | 212° |
| 2026-05-07 12:36 | 42.02772 | 124.63053 | 34104 ft | 439 kts | 212° |
| 2026-05-07 12:37 | 41.97324 | 124.59323 | 34102 ft | 439 kts | 213° |
| 2026-05-07 12:37 | 41.91989 | 124.55361 | 34105 ft | 437 kts | 215° |
| 2026-05-07 12:38 | 41.87594 | 124.51906 | 34103 ft | 437 kts | 216° |
| 2026-05-07 12:38 | 41.82372 | 124.47828 | 34098 ft | 437 kts | 215° |
| 2026-05-07 12:39 | 41.77078 | 124.43796 | 34108 ft | 438 kts | 214° |
| 2026-05-07 12:39 | 41.71775 | 124.39790 | 34099 ft | 438 kts | 214° |
| 2026-05-07 12:40 | 41.66468 | 124.35794 | 34108 ft | 437 kts | 215° |
| 2026-05-07 12:40 | 41.61175 | 124.31791 | 34113 ft | 437 kts | 215° |
| 2026-05-07 12:41 | 41.55887 | 124.27781 | 34119 ft | 437 kts | 215° |
| 2026-05-07 12:41 | 41.50596 | 124.23792 | 34114 ft | 437 kts | 215° |
| 2026-05-07 12:42 | 41.45292 | 124.19814 | 34122 ft | 437 kts | 215° |
| 2026-05-07 12:42 | 41.39993 | 124.15850 | 34126 ft | 437 kts | 215° |
| 2026-05-07 12:43 | 41.34661 | 124.11933 | 34116 ft | 438 kts | 214° |
| 2026-05-07 12:43 | 41.29308 | 124.08078 | 34122 ft | 437 kts | 214° |
| 2026-05-07 12:44 | 41.23956 | 124.04231 | 34126 ft | 437 kts | 214° |
| 2026-05-07 12:44 | 41.18644 | 124.00404 | 34126 ft | 437 kts | 214° |
| 2026-05-07 12:45 | 41.13309 | 123.96555 | 34124 ft | 437 kts | 214° |
| 2026-05-07 12:45 | 41.07969 | 123.92714 | 34104 ft | 437 kts | 214° |
| 2026-05-07 12:46 | 41.02619 | 123.88877 | 34099 ft | 437 kts | 214° |
| 2026-05-07 12:46 | 40.97276 | 123.85042 | 34124 ft | 437 kts | 214° |
| 2026-05-07 12:47 | 40.91944 | 123.81228 | 34116 ft | 435 kts | 214° |
| 2026-05-07 12:47 | 40.86616 | 123.77430 | 34119 ft | 434 kts | 215° |
| 2026-05-07 12:48 | 40.81302 | 123.73635 | 34113 ft | 434 kts | 215° |
| 2026-05-07 12:48 | 40.76030 | 123.69755 | 34113 ft | 434 kts | 216° |
| 2026-05-07 12:49 | 40.70767 | 123.65858 | 34103 ft | 434 kts | 216° |
| 2026-05-07 12:49 | 40.65497 | 123.61977 | 34117 ft | 434 kts | 216° |
| 2026-05-07 12:50 | 40.60221 | 123.58123 | 34122 ft | 434 kts | 216° |
| 2026-05-07 12:50 | 40.54933 | 123.54263 | 34117 ft | 435 kts | 216° |
| 2026-05-07 12:51 | 40.49647 | 123.50402 | 34121 ft | 435 kts | 216° |
| 2026-05-07 12:51 | 40.44360 | 123.46538 | 34117 ft | 434 kts | 216° |
| 2026-05-07 12:52 | 40.39110 | 123.42723 | 34121 ft | 434 kts | 216° |
| 2026-05-07 12:52 | 40.33835 | 123.38892 | 34135 ft | 433 kts | 216° |
| 2026-05-07 12:53 | 40.28567 | 123.35069 | 34146 ft | 433 kts | 216° |
| 2026-05-07 12:53 | 40.25946 | 123.33172 | 33152 ft | 433 kts | 216° |
| 2026-05-07 12:53 | 40.23307 | 123.31264 | 34167 ft | 434 kts | 216° |
| 2026-05-07 12:54 | 40.18051 | 123.27477 | 34133 ft | 430 kts | 216° |
| 2026-05-07 12:54 | 40.12820 | 123.23700 | 34132 ft | 429 kts | 216° |
| 2026-05-07 12:55 | 40.07591 | 123.19930 | 34126 ft | 430 kts | 216° |
| 2026-05-07 12:55 | 40.02352 | 123.16161 | 34121 ft | 429 kts | 216° |
| 2026-05-07 12:56 | 39.97135 | 123.12370 | 34131 ft | 429 kts | 217° |
| 2026-05-07 12:56 | 39.91925 | 123.08556 | 34122 ft | 430 kts | 217° |
| 2026-05-07 12:57 | 39.86706 | 123.04757 | 34132 ft | 430 kts | 217° |
| 2026-05-07 12:57 | 39.81483 | 123.00974 | 34138 ft | 429 kts | 217° |
| 2026-05-07 12:58 | 39.76265 | 122.97214 | 34123 ft | 429 kts | 217° |
| 2026-05-07 12:58 | 39.71052 | 122.93453 | 34146 ft | 428 kts | 217° |
| 2026-05-07 12:59 | 39.65845 | 122.89701 | 34154 ft | 428 kts | 217° |
| 2026-05-07 12:59 | 39.60643 | 122.85949 | 34140 ft | 428 kts | 217° |
| 2026-05-07 13:00 | 39.55428 | 122.82205 | 34150 ft | 428 kts | 217° |
| 2026-05-07 13:00 | 39.50210 | 122.78471 | 34165 ft | 428 kts | 217° |
| 2026-05-07 13:01 | 39.45000 | 122.74739 | 34150 ft | 427 kts | 217° |
| 2026-05-07 13:01 | 39.39802 | 122.71023 | 34173 ft | 427 kts | 217° |
| 2026-05-07 13:02 | 39.34605 | 122.67325 | 34180 ft | 426 kts | 217° |
| 2026-05-07 13:02 | 39.29415 | 122.63630 | 34166 ft | 425 kts | 218° |
| 2026-05-07 13:03 | 39.24282 | 122.59889 | 34189 ft | 423 kts | 219° |
| 2026-05-07 13:03 | 39.19292 | 122.55898 | 34187 ft | 421 kts | 221° |
| 2026-05-07 13:04 | 39.14349 | 122.51835 | 34165 ft | 421 kts | 221° |
| 2026-05-07 13:04 | 39.09391 | 122.47838 | 34188 ft | 420 kts | 220° |
| 2026-05-07 13:05 | 39.04423 | 122.43885 | 34191 ft | 419 kts | 220° |
| 2026-05-07 13:05 | 38.99465 | 122.39959 | 34173 ft | 418 kts | 220° |
| 2026-05-07 13:06 | 38.94514 | 122.36044 | 34199 ft | 417 kts | 220° |
| 2026-05-07 13:06 | 38.89584 | 122.32125 | 34202 ft | 417 kts | 221° |
| 2026-05-07 13:07 | 38.84676 | 122.28230 | 34168 ft | 417 kts | 221° |
| 2026-05-07 13:07 | 38.79738 | 122.24332 | 34195 ft | 416 kts | 221° |
| 2026-05-07 13:08 | 38.74807 | 122.20454 | 34213 ft | 415 kts | 221° |
| 2026-05-07 13:08 | 38.70500 | 122.15846 | 34182 ft | 395 kts | 238° |
| 2026-05-07 13:09 | 38.67854 | 122.09911 | 34206 ft | 379 kts | 255° |
| 2026-05-07 13:09 | 38.66406 | 122.03454 | 34220 ft | 377 kts | 257° |
| 2026-05-07 13:10 | 38.64966 | 121.97000 | 34220 ft | 377 kts | 257° |
| 2026-05-07 13:10 | 38.63516 | 121.90550 | 34218 ft | 377 kts | 257° |
| 2026-05-07 13:11 | 38.62072 | 121.84104 | 34221 ft | 377 kts | 257° |
| 2026-05-07 13:11 | 38.60624 | 121.77650 | 34236 ft | 378 kts | 258° |
| 2026-05-07 13:12 | 38.59176 | 121.71181 | 34227 ft | 379 kts | 258° |
| 2026-05-07 13:12 | 38.57717 | 121.64709 | 34222 ft | 380 kts | 258° |
| 2026-05-07 13:13 | 38.56253 | 121.58219 | 34220 ft | 380 kts | 257° |
| 2026-05-07 13:13 | 38.54783 | 121.51726 | 34234 ft | 380 kts | 258° |
| 2026-05-07 13:14 | 38.53306 | 121.45230 | 34226 ft | 381 kts | 258° |
| 2026-05-07 13:14 | 38.51817 | 121.38729 | 34213 ft | 381 kts | 258° |
| 2026-05-07 13:15 | 38.50331 | 121.32253 | 34225 ft | 380 kts | 258° |
| 2026-05-07 13:15 | 38.48850 | 121.25787 | 34235 ft | 379 kts | 258° |
| 2026-05-07 13:16 | 38.47362 | 121.19323 | 34244 ft | 380 kts | 258° |
| 2026-05-07 13:16 | 38.45438 | 121.13012 | 34240 ft | 390 kts | 245° |
| 2026-05-07 13:17 | 38.42538 | 121.07149 | 34194 ft | 390 kts | 245° |
| 2026-05-07 13:17 | 38.39658 | 121.01304 | 34237 ft | 388 kts | 245° |
| 2026-05-07 13:18 | 38.36793 | 120.95493 | 34259 ft | 387 kts | 245° |
| 2026-05-07 13:18 | 38.33926 | 120.89703 | 34252 ft | 387 kts | 245° |
| 2026-05-07 13:19 | 38.31078 | 120.83960 | 34235 ft | 386 kts | 245° |
| 2026-05-07 13:19 | 38.28200 | 120.78180 | 34224 ft | 382 kts | 245° |
| 2026-05-07 13:20 | 38.25051 | 120.72734 | 34233 ft | 395 kts | 233° |
| 2026-05-07 13:20 | 38.22881 | 120.70509 | 34233 ft | 409 kts | 223° |
| 2026-05-07 13:20 | 38.20329 | 120.68760 | 34235 ft | 420 kts | 218° |
| 2026-05-07 13:21 | 38.15067 | 120.65502 | 34169 ft | 421 kts | 218° |
| 2026-05-07 13:21 | 38.09831 | 120.62288 | 34236 ft | 417 kts | 218° |
| 2026-05-07 13:22 | 38.04613 | 120.59074 | 34247 ft | 417 kts | 217° |
| 2026-05-07 13:22 | 38.01858 | 120.57749 | 34248 ft | 432 kts | 208° |
| 2026-05-07 13:22 | 37.98847 | 120.57003 | 34250 ft | 450 kts | 199° |
| 2026-05-07 13:23 | 37.92539 | 120.56514 | 34248 ft | 454 kts | 198° |
| 2026-05-07 13:23 | 37.86246 | 120.56065 | 34264 ft | 452 kts | 198° |
| 2026-05-07 13:24 | 37.79980 | 120.55603 | 34268 ft | 451 kts | 198° |
| 2026-05-07 13:24 | 37.74800 | 120.55215 | 34230 ft | 444 kts | 200° |
| 2026-05-07 13:25 | 37.68669 | 120.54761 | 34260 ft | 440 kts | 201° |
| 2026-05-07 13:25 | 37.62593 | 120.54214 | 34269 ft | 433 kts | 203° |
| 2026-05-07 13:26 | 37.56651 | 120.53318 | 34225 ft | 428 kts | 205° |
| 2026-05-07 13:26 | 37.50760 | 120.52326 | 34250 ft | 427 kts | 205° |
| 2026-05-07 13:27 | 37.44857 | 120.51392 | 34264 ft | 428 kts | 204° |
| 2026-05-07 13:27 | 37.38936 | 120.50521 | 34270 ft | 428 kts | 204° |
| 2026-05-07 13:28 | 37.33016 | 120.49654 | 34217 ft | 428 kts | 203° |
| 2026-05-07 13:28 | 37.27092 | 120.48773 | 34236 ft | 429 kts | 203° |
| 2026-05-07 13:29 | 37.21165 | 120.47892 | 34255 ft | 429 kts | 203° |
| 2026-05-07 13:29 | 37.15232 | 120.47004 | 34231 ft | 429 kts | 202° |
| 2026-05-07 13:30 | 37.09287 | 120.46119 | 34251 ft | 431 kts | 202° |
| 2026-05-07 13:30 | 37.03330 | 120.45250 | 34262 ft | 431 kts | 202° |
| 2026-05-07 13:31 | 36.97370 | 120.44380 | 34269 ft | 431 kts | 202° |
| 2026-05-07 13:31 | 36.91411 | 120.43497 | 34272 ft | 431 kts | 202° |
| 2026-05-07 13:32 | 36.85451 | 120.42619 | 34274 ft | 431 kts | 202° |
| 2026-05-07 13:32 | 36.79490 | 120.41744 | 34273 ft | 431 kts | 202° |
| 2026-05-07 13:33 | 36.73533 | 120.40870 | 34234 ft | 431 kts | 201° |
| 2026-05-07 13:33 | 36.67568 | 120.40001 | 34262 ft | 431 kts | 201° |
| 2026-05-07 13:34 | 36.58621 | 120.38688 | 34278 ft | 432 kts | 201° |
| 2026-05-07 13:35 | 36.52646 | 120.37832 | 34252 ft | 434 kts | 199° |
| 2026-05-07 13:35 | 36.46551 | 120.37417 | 34268 ft | 442 kts | 195° |
| 2026-05-07 13:36 | 36.40503 | 120.37332 | 34284 ft | 444 kts | 195° |
| 2026-05-07 13:36 | 36.34392 | 120.37228 | 34227 ft | 443 kts | 195° |
| 2026-05-07 13:37 | 36.28280 | 120.36856 | 34245 ft | 430 kts | 202° |
| 2026-05-07 13:37 | 36.22683 | 120.35414 | 34260 ft | 424 kts | 205° |
| 2026-05-07 13:38 | 36.16908 | 120.33906 | 34270 ft | 425 kts | 205° |
| 2026-05-07 13:38 | 36.11117 | 120.32418 | 34224 ft | 426 kts | 204° |
| 2026-05-07 13:39 | 36.05304 | 120.30927 | 34242 ft | 427 kts | 204° |
| 2026-05-07 13:39 | 35.99588 | 120.29193 | 34252 ft | 413 kts | 213° |
| 2026-05-07 13:39 | 35.97023 | 120.27717 | 34263 ft | 400 kts | 221° |
| 2026-05-07 13:40 | 35.94742 | 120.25839 | 34215 ft | 390 kts | 227° |
| 2026-05-07 13:40 | 35.90585 | 120.21572 | 34230 ft | 389 kts | 229° |
| 2026-05-07 13:41 | 35.86404 | 120.17304 | 34240 ft | 391 kts | 229° |
| 2026-05-07 13:41 | 35.82206 | 120.13039 | 34252 ft | 391 kts | 229° |
| 2026-05-07 13:42 | 35.78005 | 120.08761 | 34226 ft | 392 kts | 228° |
| 2026-05-07 13:42 | 35.73826 | 120.04501 | 34241 ft | 394 kts | 228° |
| 2026-05-07 13:43 | 35.69599 | 120.00206 | 34244 ft | 395 kts | 228° |
| 2026-05-07 13:43 | 35.65354 | 119.95910 | 34254 ft | 395 kts | 228° |
| 2026-05-07 13:44 | 35.61080 | 119.91580 | 34232 ft | 396 kts | 227° |
| 2026-05-07 13:44 | 35.56821 | 119.87264 | 34250 ft | 397 kts | 227° |
| 2026-05-07 13:45 | 35.52553 | 119.82950 | 34258 ft | 398 kts | 227° |
| 2026-05-07 13:45 | 35.48305 | 119.78669 | 34284 ft | 398 kts | 228° |
| 2026-05-07 13:46 | 35.44019 | 119.74359 | 34242 ft | 399 kts | 227° |
| 2026-05-07 13:46 | 35.39751 | 119.70025 | 34253 ft | 399 kts | 227° |
| 2026-05-07 13:47 | 35.35487 | 119.65649 | 34263 ft | 400 kts | 227° |
| 2026-05-07 13:47 | 35.31216 | 119.61269 | 34273 ft | 401 kts | 227° |
| 2026-05-07 13:48 | 35.26939 | 119.56900 | 34246 ft | 401 kts | 227° |
| 2026-05-07 13:48 | 35.22653 | 119.52537 | 34277 ft | 401 kts | 227° |
| 2026-05-07 13:49 | 35.18361 | 119.48166 | 34280 ft | 402 kts | 227° |
| 2026-05-07 13:49 | 35.14055 | 119.43800 | 34285 ft | 403 kts | 227° |
| 2026-05-07 13:50 | 35.09731 | 119.39433 | 34293 ft | 403 kts | 227° |
| 2026-05-07 13:50 | 35.05416 | 119.35064 | 34296 ft | 403 kts | 227° |
| 2026-05-07 13:51 | 35.01105 | 119.30700 | 34300 ft | 403 kts | 227° |
| 2026-05-07 13:51 | 34.96784 | 119.26338 | 34301 ft | 403 kts | 227° |
| 2026-05-07 13:52 | 34.92466 | 119.21979 | 34278 ft | 403 kts | 227° |
| 2026-05-07 13:52 | 34.88139 | 119.17615 | 34268 ft | 404 kts | 227° |
| 2026-05-07 13:53 | 34.83788 | 119.13247 | 34269 ft | 405 kts | 227° |
| 2026-05-07 13:53 | 34.79436 | 119.08887 | 34278 ft | 406 kts | 227° |
| 2026-05-07 13:54 | 34.75078 | 119.04515 | 34285 ft | 407 kts | 227° |
| 2026-05-07 13:54 | 34.70716 | 119.00139 | 34273 ft | 406 kts | 227° |
| 2026-05-07 13:55 | 34.66350 | 118.95774 | 34296 ft | 406 kts | 227° |
| 2026-05-07 13:55 | 34.61962 | 118.91441 | 34279 ft | 410 kts | 223° |
| 2026-05-07 13:55 | 34.59480 | 118.89629 | 34284 ft | 421 kts | 214° |
| 2026-05-07 13:56 | 34.56700 | 118.88368 | 34285 ft | 435 kts | 204° |
| 2026-05-07 13:56 | 34.50606 | 118.87239 | 34254 ft | 445 kts | 197° |
| 2026-05-07 13:57 | 34.44466 | 118.86257 | 34260 ft | 445 kts | 198° |
| 2026-05-07 13:57 | 34.38320 | 118.85252 | 34270 ft | 446 kts | 198° |
| 2026-05-07 13:58 | 34.32207 | 118.84252 | 34259 ft | 447 kts | 198° |
| 2026-05-07 13:58 | 34.26037 | 118.83259 | 34264 ft | 448 kts | 198° |
| 2026-05-07 13:59 | 34.19853 | 118.82259 | 34270 ft | 449 kts | 198° |
| 2026-05-07 13:59 | 34.13659 | 118.81259 | 34278 ft | 449 kts | 198° |
| 2026-05-07 14:00 | 34.07448 | 118.80258 | 34247 ft | 451 kts | 198° |
| 2026-05-07 14:00 | 34.01214 | 118.79261 | 34251 ft | 453 kts | 198° |
| 2026-05-07 14:01 | 33.94949 | 118.78266 | 34259 ft | 455 kts | 198° |
| 2026-05-07 14:01 | 33.88675 | 118.77267 | 34249 ft | 456 kts | 198° |
| 2026-05-07 14:02 | 33.82382 | 118.76262 | 34254 ft | 457 kts | 198° |
| 2026-05-07 14:02 | 33.76075 | 118.75247 | 34276 ft | 457 kts | 198° |
| 2026-05-07 14:03 | 33.69761 | 118.74247 | 34276 ft | 458 kts | 197° |
| 2026-05-07 14:03 | 33.63442 | 118.73239 | 34246 ft | 458 kts | 197° |
| 2026-05-07 14:04 | 33.57112 | 118.72222 | 34254 ft | 459 kts | 197° |
| 2026-05-07 14:04 | 33.50771 | 118.71205 | 34262 ft | 460 kts | 197° |
| 2026-05-07 14:05 | 33.44423 | 118.70192 | 34244 ft | 460 kts | 198° |
| 2026-05-07 14:05 | 33.38083 | 118.69187 | 34261 ft | 460 kts | 198° |
| 2026-05-07 14:06 | 33.31737 | 118.68178 | 34275 ft | 460 kts | 198° |
| 2026-05-07 14:06 | 33.25336 | 118.67463 | 34278 ft | 472 kts | 187° |
| 2026-05-07 14:06 | 33.22031 | 118.67921 | 34233 ft | 486 kts | 176° |
| 2026-05-07 14:07 | 33.18794 | 118.69093 | 34238 ft | 500 kts | 165° |
| 2026-05-07 14:07 | 33.15632 | 118.71046 | 34245 ft | 512 kts | 154° |
| 2026-05-07 14:07 | 33.12728 | 118.73443 | 34249 ft | 515 kts | 152° |
| 2026-05-07 14:08 | 33.06806 | 118.78376 | 34255 ft | 516 kts | 152° |
| 2026-05-07 14:08 | 33.00953 | 118.83228 | 34260 ft | 516 kts | 152° |
| 2026-05-07 14:09 | 32.95052 | 118.88094 | 34260 ft | 516 kts | 152° |
| 2026-05-07 14:09 | 32.89140 | 118.92961 | 34261 ft | 517 kts | 152° |
| 2026-05-07 14:10 | 32.83228 | 118.97830 | 34272 ft | 516 kts | 152° |
| 2026-05-07 14:10 | 32.77350 | 119.02712 | 34275 ft | 515 kts | 152° |
| 2026-05-07 14:11 | 32.72473 | 119.06782 | 34278 ft | 515 kts | 152° |
| 2026-05-07 14:11 | 32.66612 | 119.11653 | 34272 ft | 514 kts | 152° |
| 2026-05-07 14:12 | 32.60749 | 119.16492 | 34245 ft | 514 kts | 152° |
| 2026-05-07 14:12 | 32.54877 | 119.21319 | 34249 ft | 514 kts | 152° |
| 2026-05-07 14:13 | 32.49008 | 119.26157 | 34252 ft | 514 kts | 152° |
| 2026-05-07 14:13 | 32.43151 | 119.30985 | 34267 ft | 512 kts | 152° |
| 2026-05-07 14:14 | 32.37301 | 119.35794 | 34264 ft | 511 kts | 152° |
| 2026-05-07 14:14 | 32.31448 | 119.40578 | 34235 ft | 511 kts | 152° |
| 2026-05-07 14:15 | 32.25596 | 119.45373 | 33712 ft | 515 kts | 152° |
| 2026-05-07 14:15 | 32.22657 | 119.47785 | 33007 ft | 514 kts | 152° |
| 2026-05-07 14:15 | 32.19729 | 119.50188 | 32321 ft | 513 kts | 152° |
| 2026-05-07 14:15 | 32.16792 | 119.52591 | 31655 ft | 513 kts | 152° |
| 2026-05-07 14:16 | 32.13863 | 119.54980 | 31009 ft | 512 kts | 152° |
| 2026-05-07 14:16 | 32.10932 | 119.57366 | 30374 ft | 512 kts | 152° |
| 2026-05-07 14:16 | 32.07995 | 119.59752 | 29664 ft | 512 kts | 152° |
| 2026-05-07 14:16 | 32.05060 | 119.62137 | 28949 ft | 513 kts | 152° |
| 2026-05-07 14:17 | 32.02114 | 119.64531 | 28199 ft | 516 kts | 152° |
| 2026-05-07 14:17 | 31.99156 | 119.66933 | 27511 ft | 518 kts | 151° |
| 2026-05-07 14:17 | 31.96243 | 119.69460 | 26831 ft | 523 kts | 145° |
| 2026-05-07 14:17 | 31.93607 | 119.72453 | 26160 ft | 530 kts | 136° |
| 2026-05-07 14:18 | 31.91340 | 119.75898 | 25545 ft | 536 kts | 127° |
| 2026-05-07 14:18 | 31.89270 | 119.79556 | 25085 ft | 537 kts | 127° |
| 2026-05-07 14:18 | 31.87211 | 119.83160 | 24649 ft | 538 kts | 128° |
| 2026-05-07 14:18 | 31.85117 | 119.86799 | 24223 ft | 537 kts | 128° |
| 2026-05-07 14:19 | 31.83020 | 119.90429 | 23815 ft | 535 kts | 128° |
| 2026-05-07 14:19 | 31.80932 | 119.94035 | 23340 ft | 532 kts | 128° |
| 2026-05-07 14:19 | 31.78864 | 119.97607 | 22847 ft | 527 kts | 128° |
| 2026-05-07 14:19 | 31.76810 | 120.01157 | 22364 ft | 523 kts | 128° |
| 2026-05-07 14:20 | 31.74778 | 120.04672 | 21910 ft | 518 kts | 128° |
| 2026-05-07 14:20 | 31.72762 | 120.08156 | 21447 ft | 513 kts | 128° |
| 2026-05-07 14:20 | 31.70762 | 120.11607 | 21004 ft | 509 kts | 128° |
| 2026-05-07 14:20 | 31.68780 | 120.15027 | 20558 ft | 504 kts | 128° |
| 2026-05-07 14:21 | 31.66815 | 120.18411 | 20108 ft | 500 kts | 128° |
| 2026-05-07 14:21 | 31.64863 | 120.21770 | 19659 ft | 496 kts | 127° |
| 2026-05-07 14:21 | 31.62925 | 120.25095 | 18953 ft | 491 kts | 128° |
| 2026-05-07 14:21 | 31.61004 | 120.28390 | 18202 ft | 487 kts | 127° |
| 2026-05-07 14:22 | 31.59229 | 120.31744 | 17411 ft | 482 kts | 120° |
| 2026-05-07 14:22 | 31.57921 | 120.35346 | 16680 ft | 477 kts | 110° |
| 2026-05-07 14:22 | 31.56846 | 120.38997 | 15950 ft | 471 kts | 110° |
| 2026-05-07 14:22 | 31.55780 | 120.42601 | 15240 ft | 465 kts | 110° |
| 2026-05-07 14:23 | 31.54724 | 120.46156 | 14566 ft | 459 kts | 110° |
| 2026-05-07 14:23 | 31.53681 | 120.49655 | 13935 ft | 452 kts | 110° |
| 2026-05-07 14:23 | 31.52647 | 120.53110 | 13322 ft | 445 kts | 110° |
| 2026-05-07 14:23 | 31.51638 | 120.56465 | 13174 ft | 427 kts | 110° |
| 2026-05-07 14:24 | 31.50676 | 120.59681 | 13046 ft | 409 kts | 110° |
| 2026-05-07 14:24 | 31.49754 | 120.62765 | 12904 ft | 392 kts | 110° |
| 2026-05-07 14:24 | 31.48870 | 120.65719 | 12784 ft | 376 kts | 110° |
| 2026-05-07 14:24 | 31.48016 | 120.68556 | 12576 ft | 364 kts | 110° |
| 2026-05-07 14:25 | 31.47180 | 120.71329 | 12178 ft | 359 kts | 110° |
| 2026-05-07 14:25 | 31.46357 | 120.74066 | 11757 ft | 355 kts | 110° |
| 2026-05-07 14:25 | 31.45539 | 120.76779 | 11327 ft | 352 kts | 110° |
| 2026-05-07 14:25 | 31.44729 | 120.79466 | 10894 ft | 349 kts | 110° |
| 2026-05-07 14:26 | 31.43925 | 120.82132 | 10463 ft | 347 kts | 109° |
| 2026-05-07 14:26 | 31.43126 | 120.84783 | 10132 ft | 341 kts | 109° |
| 2026-05-07 14:26 | 31.42351 | 120.87348 | 10013 ft | 328 kts | 109° |
| 2026-05-07 14:26 | 31.41603 | 120.89820 | 9883 ft | 316 kts | 109° |
| 2026-05-07 14:27 | 31.40881 | 120.92209 | 9671 ft | 309 kts | 109° |
| 2026-05-07 14:27 | 31.40168 | 120.94565 | 9354 ft | 305 kts | 110° |
| 2026-05-07 14:27 | 31.39460 | 120.96900 | 9002 ft | 304 kts | 110° |
| 2026-05-07 14:27 | 31.38751 | 120.99237 | 8727 ft | 304 kts | 110° |
| 2026-05-07 14:28 | 31.38046 | 121.01562 | 8451 ft | 302 kts | 110° |
| 2026-05-07 14:28 | 31.37343 | 121.03872 | 8182 ft | 302 kts | 110° |
| 2026-05-07 14:28 | 31.36640 | 121.06177 | 7919 ft | 301 kts | 110° |
| 2026-05-07 14:28 | 31.35936 | 121.08478 | 7636 ft | 299 kts | 110° |
| 2026-05-07 14:29 | 31.35247 | 121.10730 | 7373 ft | 297 kts | 111° |
| 2026-05-07 14:29 | 31.34549 | 121.13000 | 7106 ft | 296 kts | 111° |
| 2026-05-07 14:29 | 31.33847 | 121.15261 | 6858 ft | 295 kts | 111° |
| 2026-05-07 14:29 | 31.33145 | 121.17507 | 6592 ft | 293 kts | 112° |
| 2026-05-07 14:30 | 31.32173 | 121.19567 | 6316 ft | 289 kts | 131° |
| 2026-05-07 14:30 | 31.30713 | 121.21131 | 6039 ft | 287 kts | 150° |
| 2026-05-07 14:30 | 31.28924 | 121.22071 | 5769 ft | 282 kts | 168° |
| 2026-05-07 14:30 | 31.26996 | 121.22358 | 5506 ft | 280 kts | 180° |
| 2026-05-07 14:31 | 31.25055 | 121.22465 | 5230 ft | 279 kts | 179° |
| 2026-05-07 14:31 | 31.23105 | 121.22574 | 4963 ft | 281 kts | 179° |
| 2026-05-07 14:31 | 31.21163 | 121.22683 | 4682 ft | 278 kts | 178° |
| 2026-05-07 14:31 | 31.19243 | 121.22791 | 4403 ft | 275 kts | 177° |
| 2026-05-07 14:32 | 31.17348 | 121.22893 | 4124 ft | 271 kts | 176° |
| 2026-05-07 14:32 | 31.15472 | 121.22994 | 3846 ft | 268 kts | 176° |
| 2026-05-07 14:32 | 31.13616 | 121.23094 | 3573 ft | 267 kts | 175° |
| 2026-05-07 14:32 | 31.11773 | 121.23197 | 3300 ft | 264 kts | 174° |
| 2026-05-07 14:33 | 31.09949 | 121.23301 | 3022 ft | 262 kts | 173° |
| 2026-05-07 14:33 | 31.08123 | 121.23405 | 2749 ft | 263 kts | 173° |
| 2026-05-07 14:33 | 31.06296 | 121.23509 | 2469 ft | 262 kts | 173° |
| 2026-05-07 14:33 | 31.04485 | 121.23607 | 2188 ft | 258 kts | 173° |
| 2026-05-07 14:34 | 31.02811 | 121.24035 | 1976 ft | 236 kts | 144° |
| 2026-05-07 14:34 | 31.01685 | 121.25277 | 1922 ft | 216 kts | 112° |
| 2026-05-07 14:34 | 31.01275 | 121.26810 | 1916 ft | 185 kts | 85° |
| 2026-05-07 14:34 | 31.01324 | 121.28258 | 1947 ft | 175 kts | 79° |
| 2026-05-07 14:35 | 31.01382 | 121.29660 | 1924 ft | 172 kts | 79° |
| 2026-05-07 14:35 | 31.01440 | 121.31045 | 1921 ft | 170 kts | 79° |
| 2026-05-07 14:35 | 31.01706 | 121.32346 | 1919 ft | 162 kts | 60° |
| 2026-05-07 14:35 | 31.02330 | 121.33403 | 1924 ft | 153 kts | 42° |
| 2026-05-07 14:36 | 31.03131 | 121.34078 | 1916 ft | 137 kts | 26° |
| 2026-05-07 14:36 | 31.04015 | 121.34408 | 1933 ft | 133 kts | 12° |
| 2026-05-07 14:36 | 31.04941 | 121.34429 | 1933 ft | 133 kts | 3° |
| 2026-05-07 14:36 | 31.05858 | 121.34380 | 1937 ft | 132 kts | 2° |
| 2026-05-07 14:37 | 31.06779 | 121.34330 | 1931 ft | 132 kts | 2° |
| 2026-05-07 14:37 | 31.08618 | 121.34231 | 1873 ft | 132 kts | 2° |
| 2026-05-07 14:37 | 31.09516 | 121.34183 | 1757 ft | 129 kts | 2° |
| 2026-05-07 14:38 | 31.10364 | 121.34137 | 1611 ft | 128 kts | 2° |
| 2026-05-07 14:38 | 31.11244 | 121.34089 | 1447 ft | 128 kts | 1° |
| 2026-05-07 14:38 | 31.12128 | 121.34042 | 1275 ft | 128 kts | 2° |
| 2026-05-07 14:38 | 31.13013 | 121.33994 | 1096 ft | 127 kts | 1° |
| 2026-05-07 14:39 | 31.13895 | 121.33946 | 930 ft | 127 kts | 1° |
| 2026-05-07 14:39 | 31.14789 | 121.33899 | 748 ft | 127 kts | 359° |
| 2026-05-07 14:39 | 31.15683 | 121.33851 | 562 ft | 129 kts | 359° |
| 2026-05-07 14:39 | 31.16591 | 121.33802 | 368 ft | 132 kts | 1° |
| 2026-05-07 14:40 | 31.17512 | 121.33750 | 214 ft | 134 kts | 1° |
| 2026-05-07 14:40 | 31.18440 | 121.33704 | 60 ft | 132 kts | 359° |
| 2026-05-07 14:40 | 31.19315 | 121.33676 | 22 ft | 112 kts | 356° |
| 2026-05-07 14:40 | 31.19926 | 121.33624 | 19 ft | 63 kts | 357° |
| 2026-05-07 14:41 | 31.20212 | 121.33609 | 17 ft | 26 kts | 357° |
| 2026-05-07 14:41 | 31.20376 | 121.33599 | 19 ft | 23 kts | 357° |
| 2026-05-07 14:41 | 31.20524 | 121.33578 | 19 ft | 20 kts | 343° |
| 2026-05-07 14:41 | 31.20646 | 121.33515 | 19 ft | 17 kts | 324° |
| 2026-05-07 14:42 | 31.20723 | 121.33435 | 20 ft | 10 kts | 273° |
| 2026-05-07 14:42 | 31.20671 | 121.33392 | 19 ft | 10 kts | 187° |
| 2026-05-07 14:42 | 31.20596 | 121.33395 | 19 ft | 12 kts | 176° |
| 2026-05-07 14:42 | 31.20510 | 121.33400 | 19 ft | 13 kts | 177° |
| 2026-05-07 14:43 | 31.20411 | 121.33405 | 19 ft | 15 kts | 177° |
| 2026-05-07 14:43 | 31.20303 | 121.33411 | 19 ft | 16 kts | 177° |
| 2026-05-07 14:43 | 31.20185 | 121.33417 | 19 ft | 18 kts | 177° |
| 2026-05-07 14:43 | 31.20057 | 121.33424 | 19 ft | 19 kts | 177° |
| 2026-05-07 14:44 | 31.19930 | 121.33431 | 19 ft | 17 kts | 178° |
| 2026-05-07 14:44 | 31.19837 | 121.33419 | 20 ft | 12 kts | 227° |
| 2026-05-07 14:44 | 31.19823 | 121.33323 | 20 ft | 13 kts | 267° |
| 2026-05-07 14:44 | 31.19818 | 121.33216 | 19 ft | 14 kts | 267° |
| 2026-05-07 14:45 | 31.19813 | 121.33101 | 19 ft | 14 kts | 266° |
| 2026-05-07 14:45 | 31.19750 | 121.33048 | 19 ft | 12 kts | 209° |
| 2026-05-07 14:45 | 31.19728 | 121.32961 | 19 ft | 12 kts | 267° |
| 2026-05-07 14:45 | 31.19724 | 121.32856 | 19 ft | 14 kts | 267° |
| 2026-05-07 14:46 | 31.19719 | 121.32743 | 19 ft | 13 kts | 267° |
| 2026-05-07 14:46 | 31.19673 | 121.32662 | 19 ft | 12 kts | 186° |
| 2026-05-07 14:46 | 31.19623 | 121.32657 | 19 ft | 5 kts | 180° |
| 2026-05-07 14:46 | 31.19597 | 121.32635 | 19 ft | 6 kts | 246° |
| 2026-05-07 14:47 | 31.19597 | 121.32589 | 19 ft | 5 kts | 264° |
| 2026-05-07 14:47 | 31.19594 | 121.32542 | 19 ft | 0 kts | 267° |
| 2026-05-07 14:47 | 31.19594 | 121.32541 | 19 ft | 1 kts | 267° |
| 2026-05-07 14:47 | 31.19594 | 121.32535 | 19 ft | 0 kts | 267° |